Terminal Aerodrome Forecast
Issued by NWS

Home | Current Version | Previous Version | Text Only | Print | Product List | Glossary On
Versions: 1 2 3 4 5 6 7 8 9 10 11 12 13 14 15 16
000
FTAK31 PAFA 300547
TAFAFA
TAF
PAFA 300547Z 3006/3112 24010KT 3SM -RA BR BKN010 OVC020
     FM302000 24006KT P6SM -RA SCT020 BKN030
     FM310000 18006KT P6SM -SHRA BKN035=

USA.gov is the U.S. government's official web portal to all federal, state and local government web resources and services.